sensor_id;sensor_type;location;lat;lon;timestamp;P1;durP1;ratioP1;P2;durP2;ratioP2
21175;SDS011;10746;50.178;8.186;2023-05-07T00:01:19;3.90;;;2.80;;
21175;SDS011;10746;50.178;8.186;2023-05-07T00:03:46;3.85;;;2.60;;
21175;SDS011;10746;50.178;8.186;2023-05-07T00:06:13;3.83;;;2.30;;
21175;SDS011;10746;50.178;8.186;2023-05-07T00:08:41;5.03;;;2.25;;
21175;SDS011;10746;50.178;8.186;2023-05-07T00:11:08;6.82;;;2.90;;
21175;SDS011;10746;50.178;8.186;2023-05-07T00:13:35;3.90;;;2.45;;
21175;SDS011;10746;50.178;8.186;2023-05-07T00:16:01;3.47;;;2.55;;
21175;SDS011;10746;50.178;8.186;2023-05-07T00:18:28;4.53;;;2.10;;
21175;SDS011;10746;50.178;8.186;2023-05-07T00:20:55;2.72;;;2.20;;
21175;SDS011;10746;50.178;8.186;2023-05-07T00:23:22;2.40;;;2.20;;
21175;SDS011;10746;50.178;8.186;2023-05-07T00:25:50;3.00;;;2.33;;
21175;SDS011;10746;50.178;8.186;2023-05-07T00:28:17;4.13;;;2.40;;
21175;SDS011;10746;50.178;8.186;2023-05-07T00:30:44;8.10;;;2.70;;
21175;SDS011;10746;50.178;8.186;2023-05-07T00:33:11;2.67;;;2.50;;
21175;SDS011;10746;50.178;8.186;2023-05-07T00:35:37;3.05;;;2.40;;
21175;SDS011;10746;50.178;8.186;2023-05-07T00:38:04;2.63;;;2.40;;
21175;SDS011;10746;50.178;8.186;2023-05-07T00:40:31;4.43;;;2.38;;
21175;SDS011;10746;50.178;8.186;2023-05-07T00:42:59;2.67;;;2.45;;
21175;SDS011;10746;50.178;8.186;2023-05-07T00:45:26;2.60;;;2.40;;
21175;SDS011;10746;50.178;8.186;2023-05-07T00:47:54;3.22;;;2.10;;
21175;SDS011;10746;50.178;8.186;2023-05-07T00:50:21;1.98;;;1.88;;
21175;SDS011;10746;50.178;8.186;2023-05-07T00:52:48;2.95;;;1.90;;
21175;SDS011;10746;50.178;8.186;2023-05-07T00:55:14;3.03;;;1.85;;
21175;SDS011;10746;50.178;8.186;2023-05-07T00:57:41;1.88;;;1.77;;
21175;SDS011;10746;50.178;8.186;2023-05-07T01:00:10;2.58;;;2.00;;
21175;SDS011;10746;50.178;8.186;2023-05-07T01:02:37;4.18;;;1.83;;
21175;SDS011;10746;50.178;8.186;2023-05-07T01:05:05;1.95;;;1.85;;
21175;SDS011;10746;50.178;8.186;2023-05-07T01:07:34;1.95;;;1.85;;
21175;SDS011;10746;50.178;8.186;2023-05-07T01:10:02;2.35;;;2.15;;
21175;SDS011;10746;50.178;8.186;2023-05-07T01:12:30;4.93;;;2.40;;
21175;SDS011;10746;50.178;8.186;2023-05-07T01:14:57;3.58;;;2.70;;
21175;SDS011;10746;50.178;8.186;2023-05-07T01:17:25;2.45;;;2.00;;
21175;SDS011;10746;50.178;8.186;2023-05-07T01:19:52;7.13;;;2.25;;
21175;SDS011;10746;50.178;8.186;2023-05-07T01:22:25;4.35;;;2.67;;
21175;SDS011;10746;50.178;8.186;2023-05-07T01:24:56;3.60;;;2.60;;
21175;SDS011;10746;50.178;8.186;2023-05-07T01:27:24;3.33;;;2.50;;
21175;SDS011;10746;50.178;8.186;2023-05-07T01:29:51;2.80;;;2.60;;
21175;SDS011;10746;50.178;8.186;2023-05-07T01:32:18;2.45;;;2.10;;
21175;SDS011;10746;50.178;8.186;2023-05-07T01:34:48;2.50;;;2.30;;
21175;SDS011;10746;50.178;8.186;2023-05-07T01:37:16;2.75;;;2.55;;
21175;SDS011;10746;50.178;8.186;2023-05-07T01:39:44;4.72;;;2.25;;
21175;SDS011;10746;50.178;8.186;2023-05-07T01:42:12;3.05;;;2.30;;
21175;SDS011;10746;50.178;8.186;2023-05-07T01:44:39;3.35;;;2.13;;
21175;SDS011;10746;50.178;8.186;2023-05-07T01:47:06;3.97;;;2.50;;
21175;SDS011;10746;50.178;8.186;2023-05-07T01:49:33;2.28;;;2.08;;
21175;SDS011;10746;50.178;8.186;2023-05-07T01:52:00;3.53;;;2.60;;
21175;SDS011;10746;50.178;8.186;2023-05-07T01:54:27;2.22;;;2.13;;
21175;SDS011;10746;50.178;8.186;2023-05-07T01:56:56;3.00;;;2.25;;
21175;SDS011;10746;50.178;8.186;2023-05-07T01:59:23;1.98;;;1.88;;
21175;SDS011;10746;50.178;8.186;2023-05-07T02:01:50;2.33;;;2.13;;
21175;SDS011;10746;50.178;8.186;2023-05-07T02:04:16;2.85;;;2.13;;
21175;SDS011;10746;50.178;8.186;2023-05-07T02:06:43;3.20;;;2.10;;
21175;SDS011;10746;50.178;8.186;2023-05-07T02:09:10;3.67;;;2.00;;
21175;SDS011;10746;50.178;8.186;2023-05-07T02:11:37;2.13;;;1.95;;
21175;SDS011;10746;50.178;8.186;2023-05-07T02:14:05;2.22;;;2.13;;
21175;SDS011;10746;50.178;8.186;2023-05-07T02:16:31;4.95;;;2.42;;
21175;SDS011;10746;50.178;8.186;2023-05-07T02:18:58;3.92;;;2.50;;
21175;SDS011;10746;50.178;8.186;2023-05-07T02:21:25;2.92;;;2.72;;
21175;SDS011;10746;50.178;8.186;2023-05-07T02:23:52;2.60;;;2.40;;
21175;SDS011;10746;50.178;8.186;2023-05-07T02:26:18;5.85;;;2.50;;
21175;SDS011;10746;50.178;8.186;2023-05-07T02:32:12;2.83;;;2.58;;
21175;SDS011;10746;50.178;8.186;2023-05-07T02:34:39;4.40;;;2.67;;
21175;SDS011;10746;50.178;8.186;2023-05-07T02:37:06;2.78;;;2.58;;
21175;SDS011;10746;50.178;8.186;2023-05-07T02:39:32;4.13;;;2.83;;
21175;SDS011;10746;50.178;8.186;2023-05-07T02:41:59;2.83;;;2.63;;
21175;SDS011;10746;50.178;8.186;2023-05-07T02:44:26;3.83;;;2.75;;
21175;SDS011;10746;50.178;8.186;2023-05-07T02:46:56;3.35;;;2.88;;
21175;SDS011;10746;50.178;8.186;2023-05-07T02:49:24;4.75;;;2.80;;
21175;SDS011;10746;50.178;8.186;2023-05-07T02:51:51;3.10;;;2.22;;
21175;SDS011;10746;50.178;8.186;2023-05-07T02:54:17;3.70;;;2.58;;
21175;SDS011;10746;50.178;8.186;2023-05-07T02:56:44;2.53;;;2.30;;
21175;SDS011;10746;50.178;8.186;2023-05-07T02:59:11;2.42;;;2.33;;
21175;SDS011;10746;50.178;8.186;2023-05-07T03:01:37;5.47;;;2.75;;
21175;SDS011;10746;50.178;8.186;2023-05-07T03:04:04;2.55;;;2.33;;
21175;SDS011;10746;50.178;8.186;2023-05-07T03:06:32;2.88;;;2.15;;
21175;SDS011;10746;50.178;8.186;2023-05-07T03:08:59;3.25;;;2.95;;
21175;SDS011;10746;50.178;8.186;2023-05-07T03:11:26;2.58;;;2.13;;
21175;SDS011;10746;50.178;8.186;2023-05-07T03:13:52;9.40;;;2.45;;
21175;SDS011;10746;50.178;8.186;2023-05-07T03:16:19;2.53;;;2.33;;
21175;SDS011;10746;50.178;8.186;2023-05-07T03:18:46;2.80;;;2.53;;
21175;SDS011;10746;50.178;8.186;2023-05-07T03:21:13;2.70;;;2.45;;
21175;SDS011;10746;50.178;8.186;2023-05-07T03:23:41;2.83;;;2.58;;
21175;SDS011;10746;50.178;8.186;2023-05-07T03:26:07;2.40;;;2.30;;
21175;SDS011;10746;50.178;8.186;2023-05-07T03:28:34;3.50;;;2.60;;
21175;SDS011;10746;50.178;8.186;2023-05-07T03:31:01;2.70;;;2.50;;
21175;SDS011;10746;50.178;8.186;2023-05-07T03:33:28;3.65;;;2.80;;
21175;SDS011;10746;50.178;8.186;2023-05-07T03:35:54;2.80;;;2.60;;
21175;SDS011;10746;50.178;8.186;2023-05-07T03:38:21;5.55;;;2.47;;
21175;SDS011;10746;50.178;8.186;2023-05-07T03:40:49;2.80;;;2.60;;
21175;SDS011;10746;50.178;8.186;2023-05-07T03:43:16;4.20;;;2.65;;
21175;SDS011;10746;50.178;8.186;2023-05-07T03:45:42;4.05;;;2.50;;
21175;SDS011;10746;50.178;8.186;2023-05-07T03:48:09;4.40;;;2.75;;
21175;SDS011;10746;50.178;8.186;2023-05-07T03:50:36;5.78;;;3.03;;
21175;SDS011;10746;50.178;8.186;2023-05-07T03:53:03;2.72;;;2.40;;
21175;SDS011;10746;50.178;8.186;2023-05-07T03:55:30;2.60;;;2.40;;
21175;SDS011;10746;50.178;8.186;2023-05-07T03:57:58;5.45;;;2.47;;
21175;SDS011;10746;50.178;8.186;2023-05-07T04:00:25;2.90;;;2.70;;
21175;SDS011;10746;50.178;8.186;2023-05-07T04:02:51;2.78;;;2.55;;
21175;SDS011;10746;50.178;8.186;2023-05-07T04:05:18;6.60;;;3.50;;
21175;SDS011;10746;50.178;8.186;2023-05-07T04:07:45;4.30;;;2.72;;
21175;SDS011;10746;50.178;8.186;2023-05-07T04:10:12;3.08;;;2.72;;
21175;SDS011;10746;50.178;8.186;2023-05-07T04:12:38;3.03;;;2.63;;
21175;SDS011;10746;50.178;8.186;2023-05-07T04:15:07;4.85;;;3.08;;
21175;SDS011;10746;50.178;8.186;2023-05-07T04:17:34;3.13;;;2.63;;
21175;SDS011;10746;50.178;8.186;2023-05-07T04:20:01;4.55;;;2.92;;
21175;SDS011;10746;50.178;8.186;2023-05-07T04:22:29;2.97;;;2.72;;
21175;SDS011;10746;50.178;8.186;2023-05-07T04:24:55;3.28;;;2.97;;
21175;SDS011;10746;50.178;8.186;2023-05-07T04:27:22;4.07;;;2.85;;
21175;SDS011;10746;50.178;8.186;2023-05-07T04:29:49;3.78;;;2.80;;
21175;SDS011;10746;50.178;8.186;2023-05-07T04:32:18;2.50;;;2.40;;
21175;SDS011;10746;50.178;8.186;2023-05-07T04:34:44;2.80;;;2.60;;
21175;SDS011;10746;50.178;8.186;2023-05-07T04:37:11;2.88;;;2.58;;
21175;SDS011;10746;50.178;8.186;2023-05-07T04:39:38;4.25;;;2.58;;
21175;SDS011;10746;50.178;8.186;2023-05-07T04:42:05;2.38;;;2.28;;
21175;SDS011;10746;50.178;8.186;2023-05-07T04:44:33;5.78;;;2.50;;
21175;SDS011;10746;50.178;8.186;2023-05-07T04:47:02;4.63;;;2.97;;
21175;SDS011;10746;50.178;8.186;2023-05-07T04:49:30;3.35;;;3.05;;
21175;SDS011;10746;50.178;8.186;2023-05-07T04:51:56;2.40;;;2.30;;
21175;SDS011;10746;50.178;8.186;2023-05-07T04:54:23;3.55;;;2.90;;
21175;SDS011;10746;50.178;8.186;2023-05-07T04:56:50;2.95;;;2.75;;
21175;SDS011;10746;50.178;8.186;2023-05-07T04:59:16;6.45;;;3.42;;
21175;SDS011;10746;50.178;8.186;2023-05-07T05:01:43;3.42;;;2.55;;
21175;SDS011;10746;50.178;8.186;2023-05-07T05:04:10;5.07;;;2.60;;
21175;SDS011;10746;50.178;8.186;2023-05-07T05:06:38;3.33;;;2.70;;
21175;SDS011;10746;50.178;8.186;2023-05-07T05:09:05;2.65;;;2.47;;
21175;SDS011;10746;50.178;8.186;2023-05-07T05:11:32;3.22;;;2.78;;
21175;SDS011;10746;50.178;8.186;2023-05-07T05:13:59;2.95;;;2.50;;
21175;SDS011;10746;50.178;8.186;2023-05-07T05:16:27;4.65;;;2.50;;
21175;SDS011;10746;50.178;8.186;2023-05-07T05:18:53;3.00;;;2.67;;
21175;SDS011;10746;50.178;8.186;2023-05-07T05:21:20;3.20;;;2.90;;
21175;SDS011;10746;50.178;8.186;2023-05-07T05:23:48;5.55;;;2.90;;
21175;SDS011;10746;50.178;8.186;2023-05-07T05:26:15;2.95;;;2.72;;
21175;SDS011;10746;50.178;8.186;2023-05-07T05:28:42;3.28;;;2.90;;
21175;SDS011;10746;50.178;8.186;2023-05-07T05:31:09;2.80;;;2.50;;
21175;SDS011;10746;50.178;8.186;2023-05-07T05:33:35;6.28;;;2.72;;
21175;SDS011;10746;50.178;8.186;2023-05-07T05:36:02;2.95;;;2.75;;
21175;SDS011;10746;50.178;8.186;2023-05-07T05:38:29;4.22;;;2.60;;
21175;SDS011;10746;50.178;8.186;2023-05-07T05:40:57;4.30;;;2.78;;
21175;SDS011;10746;50.178;8.186;2023-05-07T05:43:24;3.97;;;2.90;;
21175;SDS011;10746;50.178;8.186;2023-05-07T05:45:51;2.80;;;2.60;;
21175;SDS011;10746;50.178;8.186;2023-05-07T05:48:18;3.42;;;2.60;;
21175;SDS011;10746;50.178;8.186;2023-05-07T05:50:45;3.15;;;2.60;;
21175;SDS011;10746;50.178;8.186;2023-05-07T05:53:11;2.58;;;2.38;;
21175;SDS011;10746;50.178;8.186;2023-05-07T05:55:38;2.60;;;2.40;;
21175;SDS011;10746;50.178;8.186;2023-05-07T05:58:06;5.93;;;2.10;;
21175;SDS011;10746;50.178;8.186;2023-05-07T06:00:33;2.72;;;2.15;;
21175;SDS011;10746;50.178;8.186;2023-05-07T06:03:00;2.85;;;2.20;;
21175;SDS011;10746;50.178;8.186;2023-05-07T06:05:26;5.38;;;2.20;;
21175;SDS011;10746;50.178;8.186;2023-05-07T06:07:53;2.30;;;2.10;;
21175;SDS011;10746;50.178;8.186;2023-05-07T06:10:20;2.45;;;2.20;;
21175;SDS011;10746;50.178;8.186;2023-05-07T06:12:46;2.35;;;2.13;;
21175;SDS011;10746;50.178;8.186;2023-05-07T06:15:14;3.05;;;2.15;;
21175;SDS011;10746;50.178;8.186;2023-05-07T06:17:41;2.10;;;2.00;;
21175;SDS011;10746;50.178;8.186;2023-05-07T06:20:08;2.13;;;2.03;;
21175;SDS011;10746;50.178;8.186;2023-05-07T06:22:35;3.58;;;1.90;;
21175;SDS011;10746;50.178;8.186;2023-05-07T06:25:02;3.97;;;2.00;;
21175;SDS011;10746;50.178;8.186;2023-05-07T06:27:29;2.75;;;1.88;;
21175;SDS011;10746;50.178;8.186;2023-05-07T06:29:55;3.92;;;1.90;;
21175;SDS011;10746;50.178;8.186;2023-05-07T06:32:23;2.03;;;1.90;;
21175;SDS011;10746;50.178;8.186;2023-05-07T06:34:50;3.10;;;2.17;;
21175;SDS011;10746;50.178;8.186;2023-05-07T06:37:17;2.05;;;1.95;;
21175;SDS011;10746;50.178;8.186;2023-05-07T06:39:44;1.90;;;1.80;;
21175;SDS011;10746;50.178;8.186;2023-05-07T06:42:10;2.15;;;1.95;;
21175;SDS011;10746;50.178;8.186;2023-05-07T06:44:37;2.20;;;2.00;;
21175;SDS011;10746;50.178;8.186;2023-05-07T06:47:03;1.80;;;1.70;;
21175;SDS011;10746;50.178;8.186;2023-05-07T06:49:32;4.75;;;2.00;;
21175;SDS011;10746;50.178;8.186;2023-05-07T06:51:58;3.72;;;2.00;;
21175;SDS011;10746;50.178;8.186;2023-05-07T06:54:25;3.75;;;2.17;;
21175;SDS011;10746;50.178;8.186;2023-05-07T06:56:52;3.65;;;2.05;;
21175;SDS011;10746;50.178;8.186;2023-05-07T06:59:19;4.00;;;1.92;;
21175;SDS011;10746;50.178;8.186;2023-05-07T07:01:45;1.90;;;1.80;;
21175;SDS011;10746;50.178;8.186;2023-05-07T07:04:12;3.25;;;1.92;;
21175;SDS011;10746;50.178;8.186;2023-05-07T07:06:40;3.10;;;2.20;;
21175;SDS011;10746;50.178;8.186;2023-05-07T07:09:07;8.52;;;2.00;;
21175;SDS011;10746;50.178;8.186;2023-05-07T07:11:33;5.40;;;2.00;;
21175;SDS011;10746;50.178;8.186;2023-05-07T07:14:01;3.45;;;2.10;;
21175;SDS011;10746;50.178;8.186;2023-05-07T07:16:27;2.92;;;1.70;;
21175;SDS011;10746;50.178;8.186;2023-05-07T07:18:54;2.10;;;1.90;;
21175;SDS011;10746;50.178;8.186;2023-05-07T07:21:20;4.20;;;1.98;;
21175;SDS011;10746;50.178;8.186;2023-05-07T07:23:48;4.47;;;1.90;;
21175;SDS011;10746;50.178;8.186;2023-05-07T07:26:15;2.10;;;2.00;;
21175;SDS011;10746;50.178;8.186;2023-05-07T07:28:43;2.25;;;2.05;;
21175;SDS011;10746;50.178;8.186;2023-05-07T07:31:10;4.18;;;2.10;;
21175;SDS011;10746;50.178;8.186;2023-05-07T07:33:37;5.32;;;1.85;;
21175;SDS011;10746;50.178;8.186;2023-05-07T07:36:04;2.35;;;2.15;;
21175;SDS011;10746;50.178;8.186;2023-05-07T07:38:32;2.30;;;2.10;;
21175;SDS011;10746;50.178;8.186;2023-05-07T07:41:00;2.80;;;2.30;;
21175;SDS011;10746;50.178;8.186;2023-05-07T07:43:27;2.47;;;2.28;;
21175;SDS011;10746;50.178;8.186;2023-05-07T07:45:54;2.33;;;2.20;;
21175;SDS011;10746;50.178;8.186;2023-05-07T07:48:20;3.88;;;2.30;;
21175;SDS011;10746;50.178;8.186;2023-05-07T07:50:48;3.22;;;2.05;;
21175;SDS011;10746;50.178;8.186;2023-05-07T07:53:15;2.30;;;2.10;;
21175;SDS011;10746;50.178;8.186;2023-05-07T07:55:41;2.38;;;2.17;;
21175;SDS011;10746;50.178;8.186;2023-05-07T07:58:09;5.15;;;2.05;;
21175;SDS011;10746;50.178;8.186;2023-05-07T08:00:36;2.28;;;2.15;;
21175;SDS011;10746;50.178;8.186;2023-05-07T08:03:03;1.92;;;1.83;;
21175;SDS011;10746;50.178;8.186;2023-05-07T08:05:30;2.88;;;2.10;;
21175;SDS011;10746;50.178;8.186;2023-05-07T08:07:56;2.35;;;2.20;;
21175;SDS011;10746;50.178;8.186;2023-05-07T08:10:23;2.53;;;2.33;;
21175;SDS011;10746;50.178;8.186;2023-05-07T08:12:50;2.80;;;2.38;;
21175;SDS011;10746;50.178;8.186;2023-05-07T08:15:18;2.05;;;1.95;;
21175;SDS011;10746;50.178;8.186;2023-05-07T08:17:45;3.30;;;2.20;;
21175;SDS011;10746;50.178;8.186;2023-05-07T08:20:12;2.58;;;2.00;;
21175;SDS011;10746;50.178;8.186;2023-05-07T08:22:38;4.07;;;2.20;;
21175;SDS011;10746;50.178;8.186;2023-05-07T08:25:05;2.55;;;2.10;;
21175;SDS011;10746;50.178;8.186;2023-05-07T08:27:32;3.42;;;2.20;;
21175;SDS011;10746;50.178;8.186;2023-05-07T08:29:59;2.20;;;2.10;;
21175;SDS011;10746;50.178;8.186;2023-05-07T08:32:27;2.85;;;2.25;;
21175;SDS011;10746;50.178;8.186;2023-05-07T08:34:54;4.30;;;2.00;;
21175;SDS011;10746;50.178;8.186;2023-05-07T08:37:21;2.63;;;2.00;;
21175;SDS011;10746;50.178;8.186;2023-05-07T08:39:47;2.35;;;2.00;;
21175;SDS011;10746;50.178;8.186;2023-05-07T08:42:14;4.30;;;2.10;;
21175;SDS011;10746;50.178;8.186;2023-05-07T08:44:44;3.92;;;2.28;;
21175;SDS011;10746;50.178;8.186;2023-05-07T08:47:11;1.92;;;1.83;;
21175;SDS011;10746;50.178;8.186;2023-05-07T08:49:40;2.92;;;1.83;;
21175;SDS011;10746;50.178;8.186;2023-05-07T08:52:07;2.45;;;2.25;;
21175;SDS011;10746;50.178;8.186;2023-05-07T08:54:34;3.38;;;2.30;;
21175;SDS011;10746;50.178;8.186;2023-05-07T08:57:03;2.97;;;2.15;;
21175;SDS011;10746;50.178;8.186;2023-05-07T08:59:29;2.35;;;2.00;;
21175;SDS011;10746;50.178;8.186;2023-05-07T09:01:56;2.20;;;2.10;;
21175;SDS011;10746;50.178;8.186;2023-05-07T09:04:23;4.18;;;2.22;;
21175;SDS011;10746;50.178;8.186;2023-05-07T09:06:51;2.40;;;2.30;;
21175;SDS011;10746;50.178;8.186;2023-05-07T09:09:17;2.55;;;2.35;;
21175;SDS011;10746;50.178;8.186;2023-05-07T09:11:44;3.83;;;2.40;;
21175;SDS011;10746;50.178;8.186;2023-05-07T09:14:11;2.40;;;2.20;;
21175;SDS011;10746;50.178;8.186;2023-05-07T09:16:38;2.40;;;2.30;;
21175;SDS011;10746;50.178;8.186;2023-05-07T09:19:04;2.30;;;2.10;;
21175;SDS011;10746;50.178;8.186;2023-05-07T09:21:31;2.65;;;1.92;;
21175;SDS011;10746;50.178;8.186;2023-05-07T09:23:59;3.03;;;2.42;;
21175;SDS011;10746;50.178;8.186;2023-05-07T09:26:26;2.80;;;2.40;;
21175;SDS011;10746;50.178;8.186;2023-05-07T09:28:53;2.70;;;2.28;;
21175;SDS011;10746;50.178;8.186;2023-05-07T09:31:20;4.32;;;2.33;;
21175;SDS011;10746;50.178;8.186;2023-05-07T09:33:48;4.47;;;2.45;;
21175;SDS011;10746;50.178;8.186;2023-05-07T09:36:15;2.28;;;2.08;;
21175;SDS011;10746;50.178;8.186;2023-05-07T09:38:42;2.40;;;2.20;;
21175;SDS011;10746;50.178;8.186;2023-05-07T09:41:11;2.22;;;2.13;;
21175;SDS011;10746;50.178;8.186;2023-05-07T09:43:39;2.20;;;2.08;;
21175;SDS011;10746;50.178;8.186;2023-05-07T09:46:07;2.47;;;2.28;;
21175;SDS011;10746;50.178;8.186;2023-05-07T09:48:38;2.22;;;2.05;;
21175;SDS011;10746;50.178;8.186;2023-05-07T09:51:06;2.05;;;1.85;;
21175;SDS011;10746;50.178;8.186;2023-05-07T09:53:41;2.70;;;2.25;;
21175;SDS011;10746;50.178;8.186;2023-05-07T09:56:12;2.20;;;1.92;;
21175;SDS011;10746;50.178;8.186;2023-05-07T09:58:40;2.25;;;2.05;;
21175;SDS011;10746;50.178;8.186;2023-05-07T10:01:10;1.92;;;1.83;;
21175;SDS011;10746;50.178;8.186;2023-05-07T10:03:38;2.65;;;2.10;;
21175;SDS011;10746;50.178;8.186;2023-05-07T10:06:06;2.65;;;2.03;;
21175;SDS011;10746;50.178;8.186;2023-05-07T10:08:34;3.88;;;2.03;;
21175;SDS011;10746;50.178;8.186;2023-05-07T10:11:01;2.65;;;2.10;;
21175;SDS011;10746;50.178;8.186;2023-05-07T10:13:31;2.40;;;1.67;;
21175;SDS011;10746;50.178;8.186;2023-05-07T10:15:59;2.38;;;2.13;;
21175;SDS011;10746;50.178;8.186;2023-05-07T10:18:27;2.17;;;1.95;;
21175;SDS011;10746;50.178;8.186;2023-05-07T10:20:58;1.90;;;1.85;;
21175;SDS011;10746;50.178;8.186;2023-05-07T10:23:32;1.77;;;1.67;;
21175;SDS011;10746;50.178;8.186;2023-05-07T10:26:00;2.42;;;1.70;;
21175;SDS011;10746;50.178;8.186;2023-05-07T10:28:30;2.00;;;1.90;;
21175;SDS011;10746;50.178;8.186;2023-05-07T10:31:14;5.97;;;1.77;;
21175;SDS011;10746;50.178;8.186;2023-05-07T10:33:49;1.95;;;1.85;;
21175;SDS011;10746;50.178;8.186;2023-05-07T10:36:18;2.60;;;2.38;;
21175;SDS011;10746;50.178;8.186;2023-05-07T10:38:46;2.15;;;1.60;;
21175;SDS011;10746;50.178;8.186;2023-05-07T10:41:13;1.80;;;1.70;;
21175;SDS011;10746;50.178;8.186;2023-05-07T10:43:43;1.90;;;1.80;;
21175;SDS011;10746;50.178;8.186;2023-05-07T10:46:13;3.97;;;1.90;;
21175;SDS011;10746;50.178;8.186;2023-05-07T10:51:32;2.30;;;2.10;;
21175;SDS011;10746;50.178;8.186;2023-05-07T10:54:19;1.50;;;1.45;;
21175;SDS011;10746;50.178;8.186;2023-05-07T10:56:46;1.70;;;1.60;;
21175;SDS011;10746;50.178;8.186;2023-05-07T10:59:35;2.08;;;1.85;;
21175;SDS011;10746;50.178;8.186;2023-05-07T11:02:09;3.08;;;1.80;;
21175;SDS011;10746;50.178;8.186;2023-05-07T11:04:36;2.38;;;2.00;;
21175;SDS011;10746;50.178;8.186;2023-05-07T11:07:15;2.00;;;1.90;;
21175;SDS011;10746;50.178;8.186;2023-05-07T11:09:56;2.80;;;2.20;;
21175;SDS011;10746;50.178;8.186;2023-05-07T11:15:38;1.88;;;1.73;;
21175;SDS011;10746;50.178;8.186;2023-05-07T11:18:08;2.88;;;2.05;;
21175;SDS011;10746;50.178;8.186;2023-05-07T11:26:46;2.33;;;2.13;;
21175;SDS011;10746;50.178;8.186;2023-05-07T11:29:14;2.30;;;2.13;;
21175;SDS011;10746;50.178;8.186;2023-05-07T11:31:44;2.00;;;1.90;;
21175;SDS011;10746;50.178;8.186;2023-05-07T11:34:15;2.00;;;1.90;;
21175;SDS011;10746;50.178;8.186;2023-05-07T11:36:47;2.67;;;2.30;;
21175;SDS011;10746;50.178;8.186;2023-05-07T11:39:24;2.20;;;2.10;;
21175;SDS011;10746;50.178;8.186;2023-05-07T11:41:55;2.13;;;2.00;;
21175;SDS011;10746;50.178;8.186;2023-05-07T11:44:21;2.58;;;2.47;;
21175;SDS011;10746;50.178;8.186;2023-05-07T11:46:49;3.38;;;2.30;;
21175;SDS011;10746;50.178;8.186;2023-05-07T11:49:16;2.22;;;2.13;;
21175;SDS011;10746;50.178;8.186;2023-05-07T11:51:43;3.00;;;2.30;;
21175;SDS011;10746;50.178;8.186;2023-05-07T11:54:11;4.03;;;1.90;;
21175;SDS011;10746;50.178;8.186;2023-05-07T11:56:41;2.80;;;1.83;;
21175;SDS011;10746;50.178;8.186;2023-05-07T11:59:09;5.00;;;2.30;;
21175;SDS011;10746;50.178;8.186;2023-05-07T12:01:36;3.60;;;2.05;;
21175;SDS011;10746;50.178;8.186;2023-05-07T12:04:04;2.78;;;2.00;;
21175;SDS011;10746;50.178;8.186;2023-05-07T12:06:35;2.38;;;2.17;;
21175;SDS011;10746;50.178;8.186;2023-05-07T12:09:02;4.57;;;2.42;;
21175;SDS011;10746;50.178;8.186;2023-05-07T12:11:30;2.30;;;2.10;;
21175;SDS011;10746;50.178;8.186;2023-05-07T12:13:56;2.40;;;2.30;;
21175;SDS011;10746;50.178;8.186;2023-05-07T12:16:23;2.10;;;1.95;;
21175;SDS011;10746;50.178;8.186;2023-05-07T12:18:50;2.40;;;2.20;;
21175;SDS011;10746;50.178;8.186;2023-05-07T12:21:21;2.00;;;1.90;;
21175;SDS011;10746;50.178;8.186;2023-05-07T12:23:48;3.30;;;2.28;;
21175;SDS011;10746;50.178;8.186;2023-05-07T12:26:15;8.77;;;2.50;;
21175;SDS011;10746;50.178;8.186;2023-05-07T12:28:41;2.63;;;2.42;;
21175;SDS011;10746;50.178;8.186;2023-05-07T12:31:08;2.15;;;2.05;;
21175;SDS011;10746;50.178;8.186;2023-05-07T12:33:35;2.13;;;2.03;;
21175;SDS011;10746;50.178;8.186;2023-05-07T12:36:03;1.83;;;1.70;;
21175;SDS011;10746;50.178;8.186;2023-05-07T12:38:37;2.38;;;2.20;;
21175;SDS011;10746;50.178;8.186;2023-05-07T12:41:05;1.83;;;1.70;;
21175;SDS011;10746;50.178;8.186;2023-05-07T12:43:33;2.28;;;2.08;;
21175;SDS011;10746;50.178;8.186;2023-05-07T12:46:01;2.10;;;2.00;;
21175;SDS011;10746;50.178;8.186;2023-05-07T12:48:29;2.92;;;2.20;;
21175;SDS011;10746;50.178;8.186;2023-05-07T12:50:57;1.95;;;1.85;;
21175;SDS011;10746;50.178;8.186;2023-05-07T12:53:25;2.60;;;2.22;;
21175;SDS011;10746;50.178;8.186;2023-05-07T12:55:55;3.35;;;2.38;;
21175;SDS011;10746;50.178;8.186;2023-05-07T12:58:24;3.42;;;1.90;;
21175;SDS011;10746;50.178;8.186;2023-05-07T13:00:52;2.50;;;2.40;;
21175;SDS011;10746;50.178;8.186;2023-05-07T13:03:22;3.78;;;3.00;;
21175;SDS011;10746;50.178;8.186;2023-05-07T13:05:50;4.65;;;2.58;;
21175;SDS011;10746;50.178;8.186;2023-05-07T13:08:27;5.47;;;2.90;;
21175;SDS011;10746;50.178;8.186;2023-05-07T13:10:56;4.47;;;2.60;;
21175;SDS011;10746;50.178;8.186;2023-05-07T13:13:24;2.47;;;2.38;;
21175;SDS011;10746;50.178;8.186;2023-05-07T13:15:51;3.58;;;3.05;;
21175;SDS011;10746;50.178;8.186;2023-05-07T13:18:18;3.80;;;2.60;;
21175;SDS011;10746;50.178;8.186;2023-05-07T13:20:44;3.78;;;2.75;;
21175;SDS011;10746;50.178;8.186;2023-05-07T13:23:11;4.13;;;2.72;;
21175;SDS011;10746;50.178;8.186;2023-05-07T13:25:38;3.45;;;3.15;;
21175;SDS011;10746;50.178;8.186;2023-05-07T13:28:06;4.28;;;2.70;;
21175;SDS011;10746;50.178;8.186;2023-05-07T13:30:33;2.97;;;2.78;;
21175;SDS011;10746;50.178;8.186;2023-05-07T13:33:00;2.78;;;2.58;;
21175;SDS011;10746;50.178;8.186;2023-05-07T13:35:26;3.40;;;3.00;;
21175;SDS011;10746;50.178;8.186;2023-05-07T13:37:53;2.78;;;2.58;;
21175;SDS011;10746;50.178;8.186;2023-05-07T13:40:20;3.42;;;3.00;;
21175;SDS011;10746;50.178;8.186;2023-05-07T13:42:47;4.78;;;3.22;;
21175;SDS011;10746;50.178;8.186;2023-05-07T13:45:16;4.65;;;3.33;;
21175;SDS011;10746;50.178;8.186;2023-05-07T13:47:43;3.60;;;3.05;;
21175;SDS011;10746;50.178;8.186;2023-05-07T13:50:11;3.85;;;3.10;;
21175;SDS011;10746;50.178;8.186;2023-05-07T13:52:40;3.47;;;3.17;;
21175;SDS011;10746;50.178;8.186;2023-05-07T13:55:08;6.57;;;3.28;;
21175;SDS011;10746;50.178;8.186;2023-05-07T13:57:35;4.95;;;3.15;;
21175;SDS011;10746;50.178;8.186;2023-05-07T14:00:01;3.42;;;3.13;;
21175;SDS011;10746;50.178;8.186;2023-05-07T14:02:31;4.65;;;3.13;;
21175;SDS011;10746;50.178;8.186;2023-05-07T14:04:57;4.40;;;3.03;;
21175;SDS011;10746;50.178;8.186;2023-05-07T14:07:24;2.92;;;2.67;;
21175;SDS011;10746;50.178;8.186;2023-05-07T14:09:51;7.13;;;3.00;;
21175;SDS011;10746;50.178;8.186;2023-05-07T14:12:18;4.25;;;2.88;;
21175;SDS011;10746;50.178;8.186;2023-05-07T14:14:44;5.18;;;2.75;;
21175;SDS011;10746;50.178;8.186;2023-05-07T14:17:11;4.75;;;2.60;;
21175;SDS011;10746;50.178;8.186;2023-05-07T14:19:40;3.60;;;3.17;;
21175;SDS011;10746;50.178;8.186;2023-05-07T14:22:06;3.15;;;2.85;;
21175;SDS011;10746;50.178;8.186;2023-05-07T14:24:33;2.90;;;2.70;;
21175;SDS011;10746;50.178;8.186;2023-05-07T14:27:00;2.92;;;2.72;;
21175;SDS011;10746;50.178;8.186;2023-05-07T14:29:27;2.83;;;2.63;;
21175;SDS011;10746;50.178;8.186;2023-05-07T14:31:53;2.92;;;2.60;;
21175;SDS011;10746;50.178;8.186;2023-05-07T14:34:20;2.60;;;2.40;;
21175;SDS011;10746;50.178;8.186;2023-05-07T14:36:48;2.38;;;2.20;;
21175;SDS011;10746;50.178;8.186;2023-05-07T14:39:15;3.13;;;2.92;;
21175;SDS011;10746;50.178;8.186;2023-05-07T14:41:41;3.50;;;2.80;;
21175;SDS011;10746;50.178;8.186;2023-05-07T14:44:08;3.08;;;2.60;;
21175;SDS011;10746;50.178;8.186;2023-05-07T14:46:35;3.00;;;2.70;;
21175;SDS011;10746;50.178;8.186;2023-05-07T14:49:02;3.38;;;2.50;;
21175;SDS011;10746;50.178;8.186;2023-05-07T14:51:29;2.92;;;2.70;;
21175;SDS011;10746;50.178;8.186;2023-05-07T14:53:57;3.28;;;2.50;;
21175;SDS011;10746;50.178;8.186;2023-05-07T14:56:25;4.40;;;3.03;;
21175;SDS011;10746;50.178;8.186;2023-05-07T14:58:51;4.65;;;2.72;;
21175;SDS011;10746;50.178;8.186;2023-05-07T15:01:19;9.07;;;2.60;;
21175;SDS011;10746;50.178;8.186;2023-05-07T15:03:46;2.88;;;2.65;;
21175;SDS011;10746;50.178;8.186;2023-05-07T15:06:13;3.20;;;2.45;;